This is the latest recevied weather packets stored in our database for station/object XW7RMR. If no packets are shown the sender has not sent any weather packets the latest 10 day(s).
| Time | Temp. | Humidity | Pressure | Rain* | Wind** | Luminosity | Snow |
|---|---|---|---|---|---|---|---|
| 1777939943 | 24.44° C | 57% | 1009.4 hPa | 0 mm | - | 413 W/m² | - |
| 1777939640 | 23.33° C | 59% | 1009.3 hPa | 0 mm | - | 429 W/m² | - |
| 1777939337 | 23.89° C | 57% | 1009.6 hPa | 0 mm | - | 442 W/m² | - |
| 1777939034 | 23.89° C | 58% | 1009.6 hPa | 0 mm | - | 460 W/m² | - |
| 1777938730 | 23.89° C | 58% | 1009.6 hPa | 0 mm | - | 436 W/m² | - |
| 1777938428 | 23.89° C | 58% | 1009.6 hPa | 0 mm | - | 487 W/m² | - |
| 1777938124 | 22.78° C | 60% | 1009.7 hPa | 0 mm | - | 473 W/m² | - |
| 1777937820 | 23.33° C | 60% | 1009.9 hPa | 0 mm | - | 417 W/m² | - |
| 1777937516 | 23.33° C | 58% | 1009.9 hPa | 0 mm | - | 520 W/m² | - |
| 1777937214 | 25° C | 55% | 1009.9 hPa | 0 mm | - | 551 W/m² | - |
| 1777936911 | 23.89° C | 58% | 1009.9 hPa | 0 mm | - | 560 W/m² | - |
| 1777936608 | 23.33° C | 58% | 1010 hPa | 0 mm | - | 570 W/m² | - |
| 1777936304 | 23.89° C | 57% | 1009.9 hPa | 0 mm | - | 583 W/m² | - |
| 1777936000 | 23.89° C | 57% | 1010 hPa | 0 mm | - | 599 W/m² | - |
| 1777935699 | 23.89° C | 56% | 1010.3 hPa | 0 mm | - | 606 W/m² | - |
| 1777935397 | 22.78° C | 60% | 1010.2 hPa | 0 mm | - | 614 W/m² | - |
| 1777935093 | 22.78° C | 60% | 1010.1 hPa | 0 mm | - | 627 W/m² | - |
| 1777934790 | 22.78° C | 60% | 1010.3 hPa | 0 mm | - | 631 W/m² | - |
| 1777934486 | 23.33° C | 58% | 1010.3 hPa | 0 mm | - | 649 W/m² | - |
| 1777934183 | 22.78° C | 60% | 1010.3 hPa | 0 mm | - | 657 W/m² | - |
| 1777933879 | 22.22° C | 61% | 1010.4 hPa | 0 mm | - | 670 W/m² | - |
| 1777933576 | 22.22° C | 60% | 1010.5 hPa | 0 mm | - | 677 W/m² | - |
| 1777933274 | 22.78° C | 59% | 1010.6 hPa | 0 mm | - | 693 W/m² | - |
| 1777932971 | 22.22° C | 61% | 1010.6 hPa | 0 mm | - | 691 W/m² | - |
| 1777932668 | 21.67° C | 61% | 1010.6 hPa | 0 mm | - | 716 W/m² | - |
* Rain latest hour (hover to see other rain measurements)
** Current wind speed in m/s (hover to see current wind gust speed)